Time;durP1;ratioP1;P1;durP2;ratioP2;P2;SDS_P1;SDS_P2;PMS_P1;PMS_P2;Temp;Humidity;BMP_temperature;BMP_pressure;BME280_temperature;BME280_humidity;BME280_pressure;Samples;Min_cycle;Max_cycle;Signal;HPM_P1;HPM_P2
2021/08/11 00:00:25;;;;;;;18.25;7.88;;;15.10;99.90;;;;;;3542737;40;20019;-68
2021/08/11 00:02:51;;;;;;;15.13;8.52;;;15.20;99.90;;;;;;3542513;40;20041;-67
2021/08/11 00:05:16;;;;;;;14.80;7.75;;;15.20;99.90;;;;;;3542427;40;20035;-68
2021/08/11 00:07:42;;;;;;;14.10;8.07;;;15.70;99.90;;;;;;3542318;40;20042;-68
2021/08/11 00:10:07;;;;;;;13.60;7.65;;;15.10;99.90;;;;;;3542801;40;20144;-69
2021/08/11 00:12:33;;;;;;;14.70;8.10;;;15.10;99.90;;;;;;3542664;40;20038;-68
2021/08/11 00:14:58;;;;;;;14.10;8.32;;;15.10;99.90;;;;;;3542426;40;20062;-68
2021/08/11 00:17:24;;;;;;;11.88;8.23;;;15.00;99.90;;;;;;3542496;40;20130;-68
2021/08/11 00:19:49;;;;;;;12.85;7.78;;;14.90;99.90;;;;;;3542055;40;20321;-68
2021/08/11 00:22:15;;;;;;;16.33;8.20;;;14.90;99.90;;;;;;3542143;40;20034;-68
2021/08/11 00:24:40;;;;;;;13.98;8.38;;;14.90;99.90;;;;;;3542175;40;20319;-67
2021/08/11 00:27:05;;;;;;;14.75;9.35;;;14.80;99.90;;;;;;3542569;40;20034;-67
2021/08/11 00:29:31;;;;;;;17.30;9.35;;;14.90;99.90;;;;;;3540811;40;20039;-68
2021/08/11 00:31:57;;;;;;;13.68;8.43;;;14.80;99.90;;;;;;3548810;40;20037;-68
2021/08/11 00:34:22;;;;;;;19.42;9.27;;;14.80;99.90;;;;;;3549233;40;20402;-67
2021/08/11 00:36:48;;;;;;;16.48;9.48;;;14.80;99.90;;;;;;3541687;40;20463;-68
2021/08/11 00:39:13;;;;;;;15.70;9.55;;;14.70;99.90;;;;;;3547618;40;20072;-68
2021/08/11 00:41:45;;;;;;;16.25;8.98;;;14.70;99.90;;;;;;3540884;40;20039;-68
2021/08/11 00:44:13;;;;;;;14.80;9.57;;;14.70;99.90;;;;;;3541008;40;20042;-68
2021/08/11 00:46:38;;;;;;;19.48;9.95;;;14.60;99.90;;;;;;3548609;40;20038;-68
2021/08/11 00:49:04;;;;;;;19.25;10.07;;;14.60;99.90;;;;;;3541168;40;20046;-68
2021/08/11 00:51:30;;;;;;;20.25;10.82;;;14.60;99.90;;;;;;3541175;40;20062;-69
2021/08/11 00:53:58;;;;;;;18.38;10.13;;;14.60;99.90;;;;;;3549056;40;20062;-68
2021/08/11 00:56:24;;;;;;;19.42;10.32;;;14.60;99.90;;;;;;3549455;40;20042;-69
2021/08/11 00:58:50;;;;;;;18.52;10.18;;;14.60;99.90;;;;;;3549130;40;20120;-68
2021/08/11 01:01:17;;;;;;;25.35;10.90;;;14.60;99.90;;;;;;3540042;40;20022;-68
2021/08/11 01:03:43;;;;;;;21.30;10.82;;;14.40;99.90;;;;;;3549520;40;20034;-68
2021/08/11 01:06:08;;;;;;;25.90;11.30;;;14.50;99.90;;;;;;3548787;40;20093;-68
2021/08/11 01:08:36;;;;;;;21.45;11.35;;;14.50;99.90;;;;;;3548766;40;20659;-68
2021/08/11 01:11:02;;;;;;;21.60;12.02;;;14.50;99.90;;;;;;3548103;40;20034;-69
2021/08/11 01:13:28;;;;;;;19.52;11.65;;;14.60;99.90;;;;;;3548580;40;20092;-69
2021/08/11 01:15:54;;;;;;;24.60;11.73;;;14.40;99.90;;;;;;3548385;40;20064;-69
2021/08/11 01:18:24;;;;;;;19.90;10.95;;;14.40;99.90;;;;;;3548468;40;20042;-69
2021/08/11 01:20:50;;;;;;;20.75;10.70;;;14.40;99.90;;;;;;3542114;40;20141;-69
2021/08/11 01:23:16;;;;;;;20.15;10.93;;;14.70;99.90;;;;;;3541033;40;20038;-68
2021/08/11 01:25:42;;;;;;;20.73;11.57;;;14.40;99.90;;;;;;3540818;40;20300;-68
2021/08/11 01:28:07;;;;;;;21.23;11.07;;;14.30;99.90;;;;;;3540262;40;20046;-69
2021/08/11 01:30:33;;;;;;;19.10;11.43;;;14.30;99.90;;;;;;3548649;40;20038;-68
2021/08/11 01:32:59;;;;;;;23.00;12.50;;;14.70;99.90;;;;;;3540581;40;20482;-69
2021/08/11 01:35:24;;;;;;;17.15;11.15;;;14.30;99.90;;;;;;3549044;40;20034;-69
2021/08/11 01:37:50;;;;;;;16.85;10.73;;;14.20;99.90;;;;;;3548855;40;20404;-67
2021/08/11 01:40:17;;;;;;;18.40;11.77;;;14.20;99.90;;;;;;3548420;40;20033;-69
2021/08/11 01:42:44;;;;;;;18.95;11.10;;;14.20;99.90;;;;;;3541037;40;20034;-69
2021/08/11 01:45:13;;;;;;;22.45;12.23;;;14.20;99.90;;;;;;3548109;40;20048;-69
2021/08/11 01:47:45;;;;;;;;;;;14.40;99.90;;;;;;3548888;40;20026;-66
2021/08/11 01:50:11;;;;;;;17.52;10.63;;;14.10;99.90;;;;;;3541783;40;19940;-68
2021/08/11 01:52:42;;;;;;;14.90;10.18;;;14.30;99.90;;;;;;3548892;40;20066;-69
2021/08/11 01:55:08;;;;;;;20.70;11.65;;;14.10;99.90;;;;;;3540964;40;20042;-69
2021/08/11 01:57:34;;;;;;;17.73;10.88;;;14.00;99.90;;;;;;3548712;40;20049;-69
2021/08/11 02:00:00;;;;;;;17.20;10.60;;;14.00;99.90;;;;;;3548822;40;20404;-69
2021/08/11 02:02:26;;;;;;;23.88;12.25;;;14.00;99.90;;;;;;3549093;40;20324;-69
2021/08/11 02:04:53;;;;;;;20.88;12.23;;;13.90;99.90;;;;;;3548687;40;20038;-69
2021/08/11 02:07:19;;;;;;;20.05;11.38;;;13.90;99.90;;;;;;3548975;40;20037;-69
2021/08/11 02:09:48;;;;;;;19.30;11.88;;;13.90;99.90;;;;;;3546906;40;20421;-69
2021/08/11 02:12:14;;;;;;;17.95;11.45;;;13.90;99.90;;;;;;3540839;40;20136;-69
2021/08/11 02:14:41;;;;;;;18.75;11.85;;;13.80;99.90;;;;;;3548326;40;20033;-69
2021/08/11 02:17:09;;;;;;;19.65;11.02;;;13.90;99.90;;;;;;3548896;40;20053;-69
2021/08/11 02:19:34;;;;;;;21.55;11.30;;;13.80;99.90;;;;;;3548665;40;20729;-69
2021/08/11 02:22:01;;;;;;;19.40;11.93;;;13.80;99.90;;;;;;3548715;40;20574;-69
2021/08/11 02:24:28;;;;;;;20.10;11.38;;;13.80;99.90;;;;;;3540476;40;20062;-69
2021/08/11 02:26:54;;;;;;;20.15;11.23;;;13.70;99.90;;;;;;3548363;40;20652;-69
2021/08/11 02:29:20;;;;;;;19.55;12.18;;;13.70;99.90;;;;;;3548740;40;20397;-69
2021/08/11 02:31:45;;;;;;;20.48;11.23;;;13.70;99.90;;;;;;3549064;40;20336;-69
2021/08/11 02:34:12;;;;;;;18.13;10.80;;;13.60;99.90;;;;;;3548290;40;20034;-68
2021/08/11 02:36:41;;;;;;;18.55;11.00;;;13.60;99.90;;;;;;3548925;40;20069;-69
2021/08/11 02:39:07;;;;;;;20.42;12.00;;;13.60;99.90;;;;;;3548236;40;20094;-69
2021/08/11 02:41:32;;;;;;;20.10;11.63;;;14.00;99.90;;;;;;3541575;40;20026;-69
2021/08/11 02:43:58;;;;;;;17.77;10.63;;;13.60;99.90;;;;;;3548324;40;20048;-69
2021/08/11 02:46:25;;;;;;;23.75;12.20;;;13.80;99.90;;;;;;3548199;40;20030;-69
2021/08/11 02:48:51;;;;;;;19.27;12.60;;;13.50;99.90;;;;;;3548798;40;20392;-69
2021/08/11 02:51:17;;;;;;;20.02;11.52;;;13.50;99.90;;;;;;3536395;40;20412;-69
2021/08/11 02:53:44;;;;;;;22.55;11.75;;;13.40;99.90;;;;;;3540317;40;20027;-69
2021/08/11 02:56:09;;;;;;;21.65;12.20;;;13.70;99.90;;;;;;3548304;40;20038;-69
2021/08/11 02:58:35;;;;;;;20.02;10.95;;;13.30;99.90;;;;;;3548460;40;20044;-69
2021/08/11 03:01:02;;;;;;;17.27;11.25;;;13.30;99.90;;;;;;3548272;40;20116;-69
2021/08/11 03:03:27;;;;;;;17.88;11.50;;;13.30;99.90;;;;;;3548005;40;20042;-69
2021/08/11 03:05:53;;;;;;;28.23;12.85;;;13.30;99.90;;;;;;3546881;40;20474;-68
2021/08/11 03:08:20;;;;;;;23.50;11.85;;;13.30;99.90;;;;;;3548032;40;20040;-69
2021/08/11 03:10:45;;;;;;;20.95;12.05;;;13.30;99.90;;;;;;3541777;40;20325;-69
2021/08/11 03:13:10;;;;;;;21.27;12.70;;;13.30;99.90;;;;;;3549055;40;20030;-69
2021/08/11 03:15:36;;;;;;;24.67;14.05;;;13.30;99.90;;;;;;3542004;40;20608;-69
2021/08/11 03:18:02;;;;;;;24.60;13.27;;;13.30;99.90;;;;;;3548794;40;20035;-69
2021/08/11 03:20:28;;;;;;;22.75;12.45;;;13.30;99.90;;;;;;3547809;40;20047;-69
2021/08/11 03:22:55;;;;;;;23.63;12.93;;;13.30;99.90;;;;;;3540292;40;20312;-69
2021/08/11 03:25:20;;;;;;;20.88;13.05;;;13.30;99.90;;;;;;3547562;40;20042;-69
2021/08/11 03:27:46;;;;;;;23.00;13.13;;;13.20;99.90;;;;;;3539939;40;20071;-69
2021/08/11 03:30:15;;;;;;;23.90;12.38;;;13.20;99.90;;;;;;3538293;40;20031;-69
2021/08/11 03:32:40;;;;;;;24.95;13.07;;;13.20;99.90;;;;;;3549554;40;20658;-69
2021/08/11 03:35:06;;;;;;;24.33;13.05;;;13.20;99.90;;;;;;3550045;40;20054;-69
2021/08/11 03:37:32;;;;;;;22.73;12.88;;;13.20;99.90;;;;;;3549469;40;20160;-68
2021/08/11 03:40:00;;;;;;;21.83;12.48;;;13.10;99.90;;;;;;3536394;40;20043;-69
2021/08/11 03:42:26;;;;;;;20.60;12.48;;;13.00;99.90;;;;;;3548929;40;20034;-69
2021/08/11 03:44:51;;;;;;;24.33;13.60;;;13.00;99.90;;;;;;3549557;40;20042;-69
2021/08/11 03:47:18;;;;;;;22.33;13.23;;;13.00;99.90;;;;;;3542783;40;20704;-69
2021/08/11 03:49:46;;;;;;;24.23;13.18;;;12.90;99.90;;;;;;3542298;40;20169;-69
2021/08/11 03:52:12;;;;;;;23.98;13.10;;;12.90;99.90;;;;;;3539252;40;20043;-69
2021/08/11 03:54:38;;;;;;;21.50;13.13;;;12.90;99.90;;;;;;3540647;40;20128;-69
2021/08/11 03:57:04;;;;;;;25.60;12.93;;;12.90;99.90;;;;;;3549760;40;20050;-69
2021/08/11 03:59:30;;;;;;;24.55;12.85;;;12.90;99.90;;;;;;3542563;40;20023;-69
2021/08/11 04:01:56;;;;;;;24.45;12.40;;;12.90;99.90;;;;;;3549415;40;20038;-69
2021/08/11 04:04:22;;;;;;;19.65;11.32;;;12.90;99.90;;;;;;3542659;40;20337;-69
2021/08/11 04:06:47;;;;;;;19.60;11.43;;;12.90;99.90;;;;;;3541921;40;20129;-69
2021/08/11 04:09:13;;;;;;;23.92;12.52;;;12.90;99.90;;;;;;3542857;40;20046;-69
2021/08/11 04:11:38;;;;;;;24.00;13.23;;;12.90;99.90;;;;;;3541939;40;20038;-69
2021/08/11 04:14:04;;;;;;;22.38;12.57;;;12.80;99.90;;;;;;3542705;40;20772;-68
2021/08/11 04:16:29;;;;;;;21.98;12.40;;;12.80;99.90;;;;;;3542668;40;20086;-69
2021/08/11 04:18:54;;;;;;;25.70;13.05;;;12.80;99.90;;;;;;3542200;40;20054;-69
2021/08/11 04:21:20;;;;;;;21.02;12.73;;;12.80;99.90;;;;;;3542231;40;20034;-69
2021/08/11 04:23:46;;;;;;;22.85;13.32;;;13.40;99.90;;;;;;3541999;40;20030;-68
2021/08/11 04:26:11;;;;;;;22.38;12.27;;;12.90;99.90;;;;;;3542054;40;20065;-69
2021/08/11 04:28:37;;;;;;;25.48;12.63;;;12.90;99.90;;;;;;3541992;40;20034;-69
2021/08/11 04:31:02;;;;;;;24.23;14.02;;;13.00;99.90;;;;;;3541693;40;20109;-69
2021/08/11 04:33:27;;;;;;;28.60;13.18;;;13.00;99.90;;;;;;3541801;40;20397;-69
2021/08/11 04:35:53;;;;;;;31.30;15.48;;;13.10;99.90;;;;;;3541886;40;20058;-68
2021/08/11 04:38:19;;;;;;;30.38;15.43;;;13.10;99.90;;;;;;3542505;40;20062;-69
2021/08/11 04:40:45;;;;;;;29.95;15.85;;;13.30;99.90;;;;;;3541008;40;20050;-69
2021/08/11 04:43:10;;;;;;;34.88;17.27;;;13.40;99.90;;;;;;3541574;40;20049;-70
2021/08/11 04:45:36;;;;;;;34.72;18.13;;;13.50;99.90;;;;;;3541860;40;20038;-69
2021/08/11 04:48:01;;;;;;;38.35;18.77;;;13.60;99.90;;;;;;3541804;40;20062;-69
2021/08/11 04:50:27;;;;;;;39.25;20.17;;;13.80;99.90;;;;;;3541584;40;20049;-70
2021/08/11 04:52:52;;;;;;;32.15;19.05;;;13.90;99.90;;;;;;3541624;40;20064;-69
2021/08/11 04:55:17;;;;;;;47.88;20.95;;;14.00;99.90;;;;;;3541719;40;20046;-70
2021/08/11 04:57:43;;;;;;;36.45;19.77;;;14.10;99.90;;;;;;3541987;40;20031;-70
2021/08/11 05:00:08;;;;;;;41.67;20.00;;;14.20;99.90;;;;;;3541450;40;20046;-70
2021/08/11 05:02:34;;;;;;;42.95;21.27;;;14.40;99.90;;;;;;3541642;40;20865;-69
2021/08/11 05:04:59;;;;;;;50.05;22.27;;;14.30;99.90;;;;;;3541540;40;20074;-69
2021/08/11 05:07:25;;;;;;;39.22;21.08;;;14.30;99.90;;;;;;3542162;40;20093;-69
2021/08/11 05:09:50;;;;;;;44.05;20.80;;;14.40;99.90;;;;;;3541339;40;20082;-69
2021/08/11 05:12:16;;;;;;;33.03;18.77;;;14.40;99.90;;;;;;3541965;40;20023;-69
2021/08/11 05:14:41;;;;;;;40.58;19.65;;;14.40;99.90;;;;;;3542450;40;20140;-69
2021/08/11 05:17:06;;;;;;;37.83;20.27;;;14.50;99.90;;;;;;3541700;40;20050;-69
2021/08/11 05:19:32;;;;;;;36.28;19.85;;;14.60;99.90;;;;;;3542209;40;20043;-68
2021/08/11 05:21:57;;;;;;;40.35;20.60;;;14.60;99.90;;;;;;3541851;40;20054;-69
2021/08/11 05:24:23;;;;;;;45.60;21.45;;;14.60;99.90;;;;;;3542527;40;20054;-69
2021/08/11 05:26:48;;;;;;;62.72;22.83;;;14.70;99.90;;;;;;3542423;40;20097;-69
2021/08/11 05:29:14;;;;;;;40.85;21.20;;;14.70;99.90;;;;;;3542002;40;20046;-69
2021/08/11 05:31:39;;;;;;;58.28;21.73;;;15.20;99.90;;;;;;3548693;40;20031;-70
2021/08/11 05:34:05;;;;;;;27.98;17.45;;;14.80;99.90;;;;;;3540902;40;20302;-69
2021/08/11 05:36:30;;;;;;;35.13;19.00;;;14.80;99.90;;;;;;3542266;40;20035;-69
2021/08/11 05:38:55;;;;;;;39.00;20.42;;;14.80;99.90;;;;;;3541498;40;20035;-69
2021/08/11 05:41:21;;;;;;;45.17;20.65;;;15.10;99.90;;;;;;3541768;40;20057;-68
2021/08/11 05:43:46;;;;;;;32.65;17.42;;;14.90;99.90;;;;;;3541837;40;20490;-69
2021/08/11 05:46:12;;;;;;;33.00;20.02;;;15.00;99.90;;;;;;3547895;40;20053;-67
2021/08/11 05:48:37;;;;;;;29.90;17.58;;;15.00;99.90;;;;;;3541682;40;20065;-67
2021/08/11 05:51:02;;;;;;;65.55;22.42;;;15.40;99.90;;;;;;3541088;40;20123;-68
2021/08/11 05:53:28;;;;;;;57.55;21.23;;;15.20;99.90;;;;;;3541833;40;20414;-67
2021/08/11 05:55:53;;;;;;;43.47;20.58;;;15.30;99.90;;;;;;3542061;40;20050;-67
2021/08/11 05:58:19;;;;;;;39.55;21.50;;;15.40;99.90;;;;;;3540205;40;20034;-67
2021/08/11 06:00:44;;;;;;;32.83;19.65;;;15.50;99.90;;;;;;3541941;40;20411;-66
2021/08/11 06:03:10;;;;;;;33.00;20.05;;;15.40;99.90;;;;;;3541855;40;20033;-66
2021/08/11 06:05:44;;;;;;;36.07;21.50;;;15.50;99.90;;;;;;3540495;40;20399;-66
2021/08/11 06:08:10;;;;;;;40.63;20.77;;;15.60;99.90;;;;;;3541597;40;20277;-66
2021/08/11 06:10:35;;;;;;;32.03;19.45;;;15.60;99.90;;;;;;3542018;40;20042;-66
2021/08/11 06:13:01;;;;;;;31.75;19.27;;;15.60;99.90;;;;;;3541861;40;20037;-66
2021/08/11 06:15:27;;;;;;;34.25;19.02;;;15.70;99.90;;;;;;3541558;40;20030;-66
2021/08/11 06:17:52;;;;;;;36.08;20.33;;;15.60;99.90;;;;;;3541803;40;20031;-66
2021/08/11 06:20:19;;;;;;;35.03;20.52;;;15.70;99.90;;;;;;3541244;40;20069;-66
2021/08/11 06:22:44;;;;;;;29.33;17.88;;;15.80;99.90;;;;;;3541376;40;20060;-66
2021/08/11 06:25:10;;;;;;;37.90;21.10;;;16.00;99.90;;;;;;3541732;40;20125;-66
2021/08/11 06:27:35;;;;;;;28.17;17.70;;;16.00;99.90;;;;;;3541393;40;20393;-66
2021/08/11 06:30:01;;;;;;;30.67;17.35;;;16.00;99.90;;;;;;3541512;40;20039;-66
2021/08/11 06:32:27;;;;;;;29.45;17.98;;;16.10;99.90;;;;;;3541106;40;20131;-66
2021/08/11 06:34:52;;;;;;;27.25;17.92;;;16.10;99.90;;;;;;3541530;40;20070;-66
2021/08/11 06:37:18;;;;;;;26.10;16.60;;;16.30;99.90;;;;;;3541200;40;20408;-66
2021/08/11 06:39:44;;;;;;;25.52;16.50;;;16.30;99.90;;;;;;3541524;40;20057;-66
2021/08/11 06:42:10;;;;;;;23.58;15.43;;;16.40;99.90;;;;;;3541257;40;20405;-66
2021/08/11 06:45:01;;;;;;;25.92;16.67;;;16.60;99.90;;;;;;3539118;40;20058;-68
2021/08/11 06:47:27;;;;;;;23.02;16.20;;;16.50;99.90;;;;;;3548669;40;20078;-68
2021/08/11 06:49:52;;;;;;;23.20;14.40;;;16.60;99.90;;;;;;3534273;40;20411;-68
2021/08/11 06:52:18;;;;;;;24.05;15.75;;;16.60;99.90;;;;;;3541532;40;20022;-68
2021/08/11 06:54:43;;;;;;;20.17;13.80;;;16.80;99.90;;;;;;3541401;40;20085;-66
2021/08/11 06:57:09;;;;;;;24.83;15.38;;;16.80;99.90;;;;;;3548631;40;20030;-68
2021/08/11 06:59:34;;;;;;;22.40;16.05;;;16.70;99.90;;;;;;3541440;40;20662;-68
2021/08/11 07:02:00;;;;;;;22.45;14.65;;;16.70;99.90;;;;;;3541176;40;20318;-66
2021/08/11 07:04:25;;;;;;;20.73;14.80;;;16.80;99.90;;;;;;3541877;40;20038;-67
2021/08/11 07:06:51;;;;;;;21.10;13.52;;;17.00;99.90;;;;;;3541223;40;20042;-66
2021/08/11 07:09:18;;;;;;;30.30;15.68;;;16.90;99.90;;;;;;3541885;40;20490;-66
2021/08/11 07:11:44;;;;;;;22.40;14.75;;;15.80;99.90;;;;;;3541623;40;20038;-68
2021/08/11 07:14:09;;;;;;;23.88;14.90;;;16.80;99.90;;;;;;3541495;40;20321;-67
2021/08/11 07:16:37;;;;;;;23.48;14.85;;;16.90;99.90;;;;;;3548686;40;20031;-67
2021/08/11 07:19:02;;;;;;;22.73;14.55;;;16.80;99.90;;;;;;3540984;40;20175;-67
2021/08/11 07:21:28;;;;;;;21.67;13.68;;;16.80;99.90;;;;;;3541322;40;20401;-68
2021/08/11 07:23:53;;;;;;;27.38;15.20;;;16.80;99.90;;;;;;3548125;40;20062;-70
2021/08/11 07:26:19;;;;;;;23.50;15.23;;;16.90;99.90;;;;;;3541637;40;20035;-70
2021/08/11 07:28:45;;;;;;;23.05;15.98;;;16.90;99.90;;;;;;3541184;40;20153;-69
2021/08/11 07:31:10;;;;;;;25.85;16.30;;;16.90;99.90;;;;;;3539231;40;20030;-68
2021/08/11 07:33:36;;;;;;;23.65;14.88;;;17.10;99.90;;;;;;3540449;40;20154;-68
2021/08/11 07:36:01;;;;;;;28.15;16.27;;;17.20;99.90;;;;;;3541114;40;20027;-69
2021/08/11 07:38:27;;;;;;;24.60;15.13;;;17.30;99.90;;;;;;3541465;40;20025;-69
2021/08/11 07:40:52;;;;;;;22.58;14.30;;;17.30;99.90;;;;;;3540996;40;20658;-69
2021/08/11 07:43:18;;;;;;;24.05;14.32;;;17.30;99.90;;;;;;3540500;40;20070;-69
2021/08/11 07:45:43;;;;;;;23.95;14.30;;;17.30;99.90;;;;;;3540693;40;20038;-68
2021/08/11 07:48:09;;;;;;;24.67;15.73;;;17.30;99.90;;;;;;3535952;40;20014;-69
2021/08/11 07:50:35;;;;;;;22.05;13.65;;;17.70;99.90;;;;;;3539852;40;20039;-69
2021/08/11 07:53:00;;;;;;;17.85;12.15;;;17.80;99.90;;;;;;3546704;40;20706;-69
2021/08/11 07:55:26;;;;;;;16.55;11.43;;;18.00;99.90;;;;;;3539963;40;20046;-68
2021/08/11 07:57:51;;;;;;;16.02;9.77;;;18.10;99.90;;;;;;3541058;40;20034;-68
2021/08/11 08:00:17;;;;;;;17.98;12.05;;;18.20;99.90;;;;;;3540101;40;20025;-65
2021/08/11 08:02:42;;;;;;;28.50;16.15;;;18.40;99.90;;;;;;3539732;40;20038;-64
2021/08/11 08:05:08;;;;;;;18.80;12.15;;;18.50;99.90;;;;;;3540084;40;20109;-65
2021/08/11 08:07:33;;;;;;;20.45;11.98;;;18.70;99.90;;;;;;3540511;40;20720;-65
2021/08/11 08:10:00;;;;;;;15.65;11.05;;;18.70;99.90;;;;;;3540098;40;20427;-65
2021/08/11 08:12:25;;;;;;;19.02;12.20;;;18.70;99.90;;;;;;3539106;40;20121;-65
2021/08/11 08:14:51;;;;;;;16.95;9.60;;;18.90;99.90;;;;;;3540091;40;20414;-67
2021/08/11 08:17:16;;;;;;;16.92;9.73;;;19.20;99.90;;;;;;3539867;40;20043;-68
2021/08/11 08:19:42;;;;;;;13.20;8.98;;;19.40;99.90;;;;;;3541134;40;20027;-67
2021/08/11 08:22:07;;;;;;;15.23;8.20;;;19.60;99.90;;;;;;3541943;40;20030;-67
2021/08/11 08:24:33;;;;;;;14.18;8.48;;;19.80;99.90;;;;;;3541064;40;20097;-67
2021/08/11 08:26:58;;;;;;;12.10;7.28;;;20.00;99.90;;;;;;3541795;40;20141;-67
2021/08/11 08:29:24;;;;;;;15.77;8.27;;;19.90;99.90;;;;;;3541143;40;20553;-67
2021/08/11 08:31:49;;;;;;;13.63;8.57;;;19.90;99.90;;;;;;3541019;40;20061;-67
2021/08/11 08:34:14;;;;;;;11.27;6.50;;;19.90;99.90;;;;;;3541319;40;20053;-68
2021/08/11 08:36:40;;;;;;;14.50;6.93;;;20.00;99.90;;;;;;3548013;40;20034;-68
2021/08/11 08:39:05;;;;;;;14.75;6.25;;;20.30;99.90;;;;;;3541214;40;20053;-68
2021/08/11 08:41:31;;;;;;;13.20;5.97;;;20.70;99.90;;;;;;3541286;40;20046;-68
2021/08/11 08:43:57;;;;;;;11.90;6.20;;;21.10;99.90;;;;;;3541363;40;20062;-69
2021/08/11 08:46:23;;;;;;;11.70;6.75;;;21.10;99.90;;;;;;3541249;40;20128;-69
2021/08/11 08:48:48;;;;;;;9.93;5.82;;;21.10;99.90;;;;;;3541412;40;20033;-68
2021/08/11 08:51:14;;;;;;;10.70;5.50;;;21.10;99.90;;;;;;3541343;40;20050;-63
2021/08/11 08:53:39;;;;;;;11.48;5.82;;;21.00;99.90;;;;;;3540394;40;20041;-69
2021/08/11 08:56:05;;;;;;;10.73;6.38;;;20.90;99.90;;;;;;3541649;40;20031;-68
2021/08/11 08:58:31;;;;;;;9.90;6.47;;;20.90;99.90;;;;;;3541075;40;20034;-67
2021/08/11 09:00:56;;;;;;;8.90;5.40;;;20.90;99.90;;;;;;3539600;40;20033;-69
2021/08/11 09:03:22;;;;;;;8.50;5.22;;;21.10;99.90;;;;;;3540152;40;20030;-67
2021/08/11 09:05:47;;;;;;;10.30;5.63;;;21.10;99.90;;;;;;3540893;40;20124;-67
2021/08/11 09:08:13;;;;;;;10.23;5.63;;;21.30;99.90;;;;;;3540093;40;20592;-68
2021/08/11 09:10:41;;;;;;;7.15;4.88;;;21.50;99.90;;;;;;3541060;40;20381;-67
2021/08/11 09:13:08;;;;;;;8.63;5.30;;;;;;;;;;3540786;40;20034;-68
2021/08/11 09:15:33;;;;;;;9.38;5.57;;;21.40;99.90;;;;;;3540687;40;20312;-67
2021/08/11 09:17:59;;;;;;;10.80;4.88;;;22.60;99.90;;;;;;3540785;40;20025;-67
2021/08/11 09:20:25;;;;;;;9.02;5.57;;;;;;;;;;3540806;40;20049;-67
2021/08/11 09:22:51;;;;;;;9.40;4.50;;;;;;;;;;3540992;40;20511;-67
2021/08/11 09:25:17;;;;;;;16.38;4.47;;;;;;;;;;3547873;40;20026;-67
2021/08/11 09:27:43;;;;;;;10.15;5.05;;;;;;;;;;3542035;40;20711;-67
2021/08/11 09:30:09;;;;;;;7.38;4.07;;;;;;;;;;3540867;40;20034;-67
2021/08/11 09:32:35;;;;;;;7.97;3.80;;;;;;;;;;3549037;40;20721;-67
2021/08/11 09:35:00;;;;;;;8.70;4.20;;;23.70;99.90;;;;;;3541597;40;20038;-67
2021/08/11 09:37:26;;;;;;;8.25;4.30;;;;;;;;;;3541589;40;20038;-67
2021/08/11 09:39:52;;;;;;;13.35;4.15;;;;;;;;;;3541749;40;20113;-68
2021/08/11 09:42:18;;;;;;;9.25;4.55;;;;;;;;;;3542023;40;20046;-68
2021/08/11 09:44:44;;;;;;;5.55;2.78;;;;;;;;;;3542020;40;20047;-67
2021/08/11 09:47:10;;;;;;;8.05;2.85;;;;;;;;;;3542451;40;20031;-68
2021/08/11 09:49:36;;;;;;;8.20;2.75;;;;;;;;;;3540927;40;20328;-67
2021/08/11 09:52:02;;;;;;;4.75;2.97;;;;;;;;;;3540230;40;20706;-68
2021/08/11 09:54:28;;;;;;;5.10;2.85;;;;;;;;;;3540774;40;20037;-67
2021/08/11 09:56:54;;;;;;;3.88;2.70;;;;;;;;;;3548378;40;20070;-67
2021/08/11 09:59:20;;;;;;;5.35;3.20;;;;;;;;;;3541005;40;20035;-67
2021/08/11 10:01:46;;;;;;;5.03;3.30;;;;;;;;;;3540788;40;20034;-67
2021/08/11 10:04:13;;;;;;;6.57;4.25;;;;;;;;;;3541725;40;20281;-68
2021/08/11 10:06:39;;;;;;;8.93;3.53;;;;;;;;;;3541228;40;20030;-68
2021/08/11 10:09:05;;;;;;;7.95;3.45;;;;;;;;;;3540287;40;20039;-68
2021/08/11 10:11:31;;;;;;;5.93;3.40;;;;;;;;;;3541760;40;20026;-68
2021/08/11 10:13:57;;;;;;;7.88;4.00;;;;;;;;;;3539479;40;20050;-67
2021/08/11 10:16:23;;;;;;;8.68;3.50;;;;;;;;;;3541852;40;20038;-67
2021/08/11 10:18:49;;;;;;;4.78;2.65;;;;;;;;;;3540503;40;20132;-67
2021/08/11 10:21:15;;;;;;;6.50;3.28;;;;;;;;;;3541648;40;20124;-67
2021/08/11 10:23:41;;;;;;;5.20;3.03;;;;;;;;;;3541251;40;20078;-67
2021/08/11 10:26:07;;;;;;;6.75;2.83;;;;;;;;;;3539765;40;20031;-67
2021/08/11 10:28:33;;;;;;;6.03;3.30;;;;;;;;;;3547278;40;20093;-67
2021/08/11 10:30:59;;;;;;;3.85;2.35;;;;;;;;;;3539425;40;20030;-67
2021/08/11 10:33:25;;;;;;;5.13;2.65;;;;;;;;;;3540186;40;20733;-67
2021/08/11 10:35:51;;;;;;;5.38;2.97;;;;;;;;;;3539071;40;20037;-67
2021/08/11 10:38:17;;;;;;;4.43;2.65;;;;;;;;;;3539489;40;20082;-66
2021/08/11 10:40:43;;;;;;;7.75;3.17;;;;;;;;;;3539750;40;20057;-67
2021/08/11 10:43:12;;;;;;;6.30;2.75;;;;;;;;;;3539853;40;20459;-67
2021/08/11 10:45:38;;;;;;;7.53;3.42;;;;;;;;;;3539050;40;20348;-67
2021/08/11 10:48:04;;;;;;;6.22;2.95;;;;;;;;;;3540994;40;20041;-67
2021/08/11 10:50:31;;;;;;;4.47;2.72;;;;;;;;;;3540135;40;20257;-67
2021/08/11 10:52:57;;;;;;;5.30;3.40;;;;;;;;;;3540724;40;20685;-67
2021/08/11 10:55:22;;;;;;;4.95;3.03;;;;;;;;;;3540414;40;20091;-67
2021/08/11 10:57:48;;;;;;;4.40;2.70;;;;;;;;;;3541045;40;20026;-67
2021/08/11 11:00:14;;;;;;;5.15;2.95;;;;;;;;;;3540915;40;20042;-67
2021/08/11 11:02:40;;;;;;;7.00;3.03;;;;;;;;;;3540667;40;20705;-67
2021/08/11 11:05:06;;;;;;;5.25;3.30;;;;;;;;;;3541279;40;20038;-67
2021/08/11 11:07:33;;;;;;;8.02;4.25;;;;;;;;;;3540232;40;20069;-67
2021/08/11 11:09:58;;;;;;;5.47;2.88;;;;;;;;;;3540708;40;20073;-67
2021/08/11 11:12:24;;;;;;;5.65;3.08;;;;;;;;;;3541047;40;20019;-67
2021/08/11 11:14:52;;;;;;;5.80;3.08;;;;;;;;;;3540026;40;20177;-67
2021/08/11 11:17:18;;;;;;;9.73;4.93;;;;;;;;;;3540792;40;20312;-66
2021/08/11 11:19:44;;;;;;;4.25;3.13;;;;;;;;;;3540290;40;20528;-67
2021/08/11 11:22:10;;;;;;;6.85;3.90;;;;;;;;;;3540463;40;20114;-67
2021/08/11 11:24:36;;;;;;;8.95;3.15;;;;;;;;;;3540748;40;20035;-67
2021/08/11 11:27:02;;;;;;;5.55;2.72;;;;;;;;;;3539621;40;20034;-66
2021/08/11 11:29:28;;;;;;;5.38;3.00;;;;;;;;;;3539819;40;20066;-67
2021/08/11 11:31:55;;;;;;;3.40;2.75;;;;;;;;;;3540036;40;20297;-67
2021/08/11 11:34:22;;;;;;;5.22;2.70;;;;;;;;;;3540828;40;20041;-67
2021/08/11 11:36:48;;;;;;;5.03;2.97;;;;;;;;;;3540116;40;20113;-67
2021/08/11 11:39:14;;;;;;;4.13;2.47;;;;;;;;;;3540197;40;20407;-66
2021/08/11 11:41:40;;;;;;;5.00;2.70;;;;;;;;;;3540078;40;20042;-67
2021/08/11 11:44:06;;;;;;;5.40;2.72;;;;;;;;;;3539977;40;20054;-67
2021/08/11 11:46:32;;;;;;;5.82;2.40;;;;;;;;;;3540131;40;20031;-66
2021/08/11 11:48:58;;;;;;;5.22;2.92;;;;;;;;;;3540880;40;20478;-67
2021/08/11 11:51:25;;;;;;;4.97;3.00;;;;;;;;;;3541341;40;20077;-67
2021/08/11 11:53:51;;;;;;;6.65;3.33;;;;;;;;;;3543185;40;20042;-67
2021/08/11 11:56:17;;;;;;;4.63;2.55;;;;;;;;;;3543060;40;20034;-67
2021/08/11 11:58:43;;;;;;;6.07;2.78;;;;;;;;;;3541598;40;20542;-67
2021/08/11 12:01:11;;;;;;;5.07;2.85;;;;;;;;;;3541892;40;20038;-67
2021/08/11 12:03:37;;;;;;;4.32;2.90;;;;;;;;;;3541530;40;20038;-67
2021/08/11 12:06:03;;;;;;;6.55;2.78;;;;;;;;;;3540870;40;20026;-67
2021/08/11 12:08:31;;;;;;;5.00;2.63;;;;;;;;;;3541059;40;20499;-67
2021/08/11 12:10:56;;;;;;;6.05;2.78;;;;;;;;;;3540987;40;20022;-67
2021/08/11 12:13:22;;;;;;;7.70;2.92;;;;;;;;;;3541702;40;20041;-67
2021/08/11 12:15:48;;;;;;;10.35;3.08;;;;;;;;;;3541519;40;20042;-67
2021/08/11 12:18:14;;;;;;;4.45;2.58;;;;;;;;;;3541655;40;20038;-67
2021/08/11 12:20:40;;;;;;;3.80;2.78;;;;;;;;;;3540996;40;20126;-67
2021/08/11 12:23:06;;;;;;;3.72;2.50;;;;;;;;;;3548285;40;20541;-67
2021/08/11 12:25:32;;;;;;;6.35;2.42;;;;;;;;;;3541404;40;20050;-67
2021/08/11 12:27:58;;;;;;;6.60;2.90;;;;;;;;;;3540980;40;20431;-67
2021/08/11 12:30:24;;;;;;;5.60;2.70;;;;;;;;;;3540016;40;20646;-67
2021/08/11 12:32:51;;;;;;;4.75;2.78;;;;;;;;;;3541195;40;20041;-67
2021/08/11 12:35:16;;;;;;;4.75;2.75;;;;;;;;;;3541410;40;20030;-67
2021/08/11 12:37:42;;;;;;;4.15;2.50;;;;;;;;;;3541132;40;20031;-67
2021/08/11 12:40:08;;;;;;;8.00;3.10;;;;;;;;;;3541162;40;20132;-67
2021/08/11 12:42:34;;;;;;;4.55;2.50;;;;;;;;;;3540623;40;20726;-67
2021/08/11 12:45:04;;;;;;;3.35;2.42;;;;;;;;;;3540928;40;20034;-67
2021/08/11 12:47:31;;;;;;;6.18;2.60;;;;;;;;;;3538466;40;20093;-67
2021/08/11 12:49:57;;;;;;;5.32;2.75;;;;;;;;;;3538947;40;20041;-67
2021/08/11 12:52:25;;;;;;;3.80;2.42;;;;;;;;;;3540948;40;20037;-67
2021/08/11 12:54:51;;;;;;;4.30;2.38;;;;;;;;;;3541088;40;20054;-67